createdAt,value
2023-02-20T00:01:04.894Z,7.80
2023-02-20T00:03:32.110Z,7.38
2023-02-20T00:05:59.095Z,6.20
2023-02-20T00:08:26.109Z,6.95
2023-02-20T00:10:53.262Z,7.43
2023-02-20T00:13:21.244Z,8.32
2023-02-20T00:15:51.486Z,7.57
2023-02-20T00:18:18.656Z,7.00
2023-02-20T00:20:45.619Z,7.50
2023-02-20T00:23:13.069Z,7.38
2023-02-20T00:25:47.412Z,7.75
2023-02-20T00:28:14.408Z,8.75
2023-02-20T00:30:41.554Z,8.93
2023-02-20T00:33:08.468Z,7.93
2023-02-20T00:35:35.398Z,9.07
2023-02-20T00:38:02.750Z,10.23
2023-02-20T00:40:29.900Z,7.80
2023-02-20T00:42:56.898Z,8.60
2023-02-20T00:45:23.826Z,8.25
2023-02-20T00:48:11.241Z,8.40
2023-02-20T00:50:43.018Z,11.68
2023-02-20T00:53:10.133Z,9.30
2023-02-20T00:55:37.487Z,9.35
2023-02-20T00:58:04.425Z,8.98
2023-02-20T01:00:32.201Z,9.05
2023-02-20T01:02:59.398Z,7.97
2023-02-20T01:05:26.631Z,7.80
2023-02-20T01:07:54.381Z,7.70
2023-02-20T01:10:21.493Z,8.38
2023-02-20T01:12:48.990Z,7.32
2023-02-20T01:15:16.603Z,7.88
2023-02-20T01:17:43.593Z,7.32
2023-02-20T01:20:11.653Z,8.35
2023-02-20T01:22:38.524Z,7.80
2023-02-20T01:25:06.113Z,7.38
2023-02-20T01:27:33.005Z,7.97
2023-02-20T01:30:00.222Z,7.65
2023-02-20T01:32:27.190Z,7.35
2023-02-20T01:34:54.154Z,10.88
2023-02-20T01:37:21.136Z,8.38
2023-02-20T01:39:48.751Z,9.68
2023-02-20T01:42:22.484Z,9.02
2023-02-20T01:44:50.957Z,8.48
2023-02-20T01:47:24.757Z,10.57
2023-02-20T01:49:56.713Z,11.38
2023-02-20T01:52:34.169Z,11.10
2023-02-20T01:55:08.718Z,8.13
2023-02-20T01:57:40.345Z,9.90
2023-02-20T02:00:13.190Z,8.60
2023-02-20T02:02:50.001Z,8.75
2023-02-20T02:05:19.042Z,8.73
2023-02-20T02:07:46.609Z,9.98
2023-02-20T02:10:23.517Z,9.23
2023-02-20T02:12:54.605Z,10.00
2023-02-20T02:15:24.198Z,9.70
2023-02-20T02:18:31.315Z,9.15
2023-02-20T02:21:30.085Z,10.18
2023-02-20T02:24:40.363Z,9.00
2023-02-20T02:27:47.260Z,8.38
2023-02-20T02:31:09.969Z,9.48
2023-02-20T02:34:14.318Z,8.75
2023-02-20T02:37:16.642Z,9.10
2023-02-20T02:40:22.296Z,8.80
2023-02-20T02:43:07.203Z,9.18
2023-02-20T02:45:52.837Z,8.48
2023-02-20T02:48:41.776Z,10.00
2023-02-20T02:51:20.341Z,8.90
2023-02-20T02:54:26.237Z,8.93
2023-02-20T02:57:15.239Z,8.63
2023-02-20T02:59:44.342Z,9.15
2023-02-20T03:02:18.460Z,9.75
2023-02-20T03:04:51.003Z,10.43
2023-02-20T03:07:20.850Z,9.60
2023-02-20T03:10:16.347Z,8.90
2023-02-20T03:12:50.473Z,10.32
2023-02-20T03:15:35.940Z,9.85
2023-02-20T03:18:24.442Z,10.10
2023-02-20T03:20:58.954Z,10.30
2023-02-20T03:23:33.218Z,10.10
2023-02-20T03:26:09.614Z,8.30
2023-02-20T03:28:46.123Z,9.77
2023-02-20T03:31:19.785Z,8.98
2023-02-20T03:34:34.391Z,8.88
2023-02-20T03:37:42.327Z,9.38
2023-02-20T03:40:33.997Z,10.18
2023-02-20T03:43:23.219Z,9.57
2023-02-20T03:45:56.675Z,9.10
2023-02-20T03:48:30.506Z,9.43
2023-02-20T03:50:58.565Z,9.30
2023-02-20T03:53:29.715Z,9.43
2023-02-20T03:56:02.744Z,8.75
2023-02-20T03:58:37.117Z,9.90
2023-02-20T04:01:09.911Z,9.85
2023-02-20T04:03:42.422Z,9.07
2023-02-20T04:06:13.589Z,8.43
2023-02-20T04:09:12.404Z,8.32
2023-02-20T04:11:56.132Z,8.05
2023-02-20T04:14:27.898Z,7.60
2023-02-20T04:17:07.145Z,6.95
2023-02-20T04:19:34.529Z,7.38
2023-02-20T04:22:13.187Z,7.35
2023-02-20T04:24:50.187Z,8.32
2023-02-20T04:27:19.167Z,6.93
2023-02-20T04:29:51.899Z,7.38
2023-02-20T04:32:19.984Z,8.65
2023-02-20T04:34:47.180Z,8.32
2023-02-20T04:37:19.632Z,7.88
2023-02-20T04:39:49.631Z,7.43
2023-02-20T04:42:17.587Z,8.57
2023-02-20T04:44:44.612Z,7.45
2023-02-20T04:47:17.143Z,6.82
2023-02-20T04:49:44.828Z,7.85
2023-02-20T04:52:15.201Z,8.05
2023-02-20T04:54:42.435Z,7.78
2023-02-20T04:57:12.128Z,8.35
2023-02-20T04:59:39.119Z,7.13
2023-02-20T05:02:06.136Z,7.68
2023-02-20T05:04:34.780Z,8.10
2023-02-20T05:07:02.315Z,7.93
2023-02-20T05:09:29.459Z,8.48
2023-02-20T05:11:56.313Z,8.35
2023-02-20T05:14:23.494Z,8.30
2023-02-20T05:16:51.303Z,8.23
2023-02-20T05:19:27.667Z,7.97
2023-02-20T05:22:13.732Z,7.70
2023-02-20T05:24:44.512Z,7.68
2023-02-20T05:27:14.761Z,8.18
2023-02-20T05:29:57.845Z,7.05
2023-02-20T05:32:29.318Z,7.20
2023-02-20T05:34:57.160Z,8.63
2023-02-20T05:37:28.700Z,7.28
2023-02-20T05:39:55.666Z,6.97
2023-02-20T05:42:23.002Z,7.10
2023-02-20T05:44:50.199Z,7.72
2023-02-20T05:47:17.742Z,7.82
2023-02-20T05:49:46.062Z,8.10
2023-02-20T05:52:13.239Z,7.15
2023-02-20T05:54:42.197Z,8.23
2023-02-20T05:57:13.341Z,6.90
2023-02-20T05:59:40.347Z,6.63
2023-02-20T06:02:07.382Z,8.07
2023-02-20T06:04:34.358Z,8.05
2023-02-20T06:07:01.328Z,8.40
2023-02-20T06:09:28.308Z,7.38
2023-02-20T06:12:06.426Z,7.45
2023-02-20T06:14:33.596Z,8.05
2023-02-20T06:17:00.441Z,8.52
2023-02-20T06:19:27.386Z,8.18
2023-02-20T06:21:54.662Z,8.32
2023-02-20T06:24:21.723Z,8.38
2023-02-20T06:26:48.911Z,8.43
2023-02-20T06:29:17.271Z,9.63
2023-02-20T06:31:44.571Z,9.07
2023-02-20T06:34:11.996Z,9.73
2023-02-20T06:36:42.078Z,8.82
2023-02-20T06:39:12.162Z,9.35
2023-02-20T06:41:39.116Z,8.32
2023-02-20T06:44:06.126Z,9.30
2023-02-20T06:46:33.007Z,8.57
2023-02-20T06:48:59.995Z,7.43
2023-02-20T06:51:34.530Z,9.68
2023-02-20T06:54:03.827Z,9.38
2023-02-20T06:56:34.440Z,8.88
2023-02-20T06:59:05.284Z,8.20
2023-02-20T07:01:41.033Z,9.38
2023-02-20T07:04:27.712Z,9.85
2023-02-20T07:06:55.584Z,7.85
2023-02-20T07:09:22.856Z,9.98
2023-02-20T07:11:50.800Z,9.43
2023-02-20T07:14:17.913Z,9.20
2023-02-20T07:16:44.892Z,9.60
2023-02-20T07:19:11.913Z,9.75
2023-02-20T07:21:39.429Z,8.77
2023-02-20T07:24:07.461Z,9.23
2023-02-20T07:26:36.949Z,9.07
2023-02-20T07:29:04.462Z,8.40
2023-02-20T07:31:31.376Z,9.15
2023-02-20T07:33:59.211Z,9.73
2023-02-20T07:36:26.446Z,9.10
2023-02-20T07:39:02.117Z,9.57
2023-02-20T07:41:32.409Z,10.23
2023-02-20T07:43:59.470Z,9.25
2023-02-20T07:46:26.582Z,9.23
2023-02-20T07:48:53.665Z,9.30
2023-02-20T07:51:20.737Z,9.70
2023-02-20T07:53:49.932Z,9.20
2023-02-20T07:56:19.736Z,8.90
2023-02-20T07:58:48.020Z,8.75
2023-02-20T08:01:15.416Z,9.20
2023-02-20T08:03:42.921Z,9.85
2023-02-20T08:06:10.170Z,9.60
2023-02-20T08:08:36.982Z,8.60
2023-02-20T08:11:09.660Z,8.63
2023-02-20T08:13:38.164Z,10.73
2023-02-20T08:16:06.657Z,9.85
2023-02-20T08:18:33.675Z,8.75
2023-02-20T08:21:00.605Z,9.27
2023-02-20T08:23:27.688Z,9.38
2023-02-20T08:25:54.893Z,9.88
2023-02-20T08:28:22.408Z,8.90
2023-02-20T08:30:49.398Z,9.57
2023-02-20T08:33:16.303Z,8.38
2023-02-20T08:35:43.479Z,8.88
2023-02-20T08:38:34.534Z,8.57
2023-02-20T08:41:10.622Z,9.98
2023-02-20T08:43:40.195Z,9.60
2023-02-20T08:46:07.653Z,8.82
2023-02-20T08:48:36.067Z,8.98
2023-02-20T08:51:03.823Z,8.63
2023-02-20T08:53:30.718Z,8.80
2023-02-20T08:55:57.781Z,9.73
2023-02-20T08:58:26.089Z,8.27
2023-02-20T09:00:54.507Z,8.85
2023-02-20T09:03:21.887Z,9.15
2023-02-20T09:05:49.206Z,8.77
2023-02-20T09:08:16.770Z,8.80
2023-02-20T09:10:44.632Z,9.35
2023-02-20T09:13:11.933Z,9.15
2023-02-20T09:15:39.899Z,9.82
2023-02-20T09:18:14.248Z,8.63
2023-02-20T09:20:42.689Z,9.90
2023-02-20T09:23:10.182Z,8.57
2023-02-20T09:25:37.500Z,9.05
2023-02-20T09:28:05.115Z,9.27
2023-02-20T09:30:32.304Z,8.50
2023-02-20T09:32:59.362Z,9.23
2023-02-20T09:35:31.332Z,8.88
2023-02-20T09:37:58.488Z,8.80
2023-02-20T09:40:28.580Z,8.23
2023-02-20T09:43:01.538Z,8.77
2023-02-20T09:45:34.207Z,9.63
2023-02-20T09:48:54.844Z,8.30
2023-02-20T09:51:27.465Z,8.98
2023-02-20T09:54:12.344Z,9.13
2023-02-20T09:56:46.112Z,10.30
2023-02-20T09:59:25.009Z,8.32
2023-02-20T10:02:27.147Z,8.48
2023-02-20T10:05:04.447Z,9.45
2023-02-20T10:07:38.540Z,10.90
2023-02-20T10:10:34.278Z,7.40
2023-02-20T10:13:27.776Z,9.80
2023-02-20T10:16:24.677Z,9.85
2023-02-20T10:19:22.442Z,9.38
2023-02-20T10:22:17.075Z,9.27
2023-02-20T10:25:20.621Z,10.30
2023-02-20T10:28:27.295Z,9.48
2023-02-20T10:30:56.866Z,9.15
2023-02-20T10:33:44.689Z,9.13
2023-02-20T10:36:39.182Z,8.98
2023-02-20T10:39:17.215Z,8.63
2023-02-20T10:41:58.203Z,10.02
2023-02-20T10:44:37.583Z,8.73
2023-02-20T10:47:48.529Z,9.00
2023-02-20T10:50:33.032Z,7.53
2023-02-20T10:53:49.040Z,8.63
2023-02-20T10:56:39.986Z,9.18
2023-02-20T10:59:48.447Z,7.97
2023-02-20T11:02:32.235Z,9.05
2023-02-20T11:05:16.283Z,8.50
2023-02-20T11:07:47.315Z,7.75
2023-02-20T11:10:15.350Z,8.63
2023-02-20T11:13:00.330Z,8.77
2023-02-20T11:15:38.652Z,7.45
2023-02-20T11:18:28.709Z,7.70
2023-02-20T11:20:56.585Z,7.50
2023-02-20T11:23:44.037Z,7.70
2023-02-20T11:26:30.243Z,7.15
2023-02-20T11:29:18.455Z,7.75
2023-02-20T11:31:48.023Z,7.13
2023-02-20T11:34:42.557Z,6.38
2023-02-20T11:37:17.301Z,6.38
2023-02-20T11:42:37.859Z,6.47
2023-02-20T11:45:26.253Z,7.60
2023-02-20T11:48:26.004Z,7.97
2023-02-20T11:50:54.205Z,8.30
2023-02-20T11:53:32.073Z,6.93
2023-02-20T11:56:26.344Z,6.72
2023-02-20T11:59:07.226Z,6.97
2023-02-20T12:01:38.039Z,6.93
2023-02-20T12:04:24.641Z,6.65
2023-02-20T12:06:52.016Z,6.60
2023-02-20T12:09:30.937Z,7.28
2023-02-20T12:11:58.134Z,7.30
2023-02-20T12:14:26.232Z,6.90
2023-02-20T12:17:43.298Z,7.53
2023-02-20T12:20:21.285Z,7.50
2023-02-20T12:23:15.348Z,7.13
2023-02-20T12:26:13.705Z,7.40
2023-02-20T12:29:12.949Z,7.32
2023-02-20T12:32:11.073Z,7.88
2023-02-20T12:35:25.392Z,7.75
2023-02-20T12:38:36.721Z,6.57
2023-02-20T12:41:27.475Z,7.82
2023-02-20T12:44:38.762Z,7.60
2023-02-20T12:47:43.207Z,8.30
2023-02-20T12:50:43.377Z,7.43
2023-02-20T12:53:39.201Z,6.55
2023-02-20T12:57:05.591Z,8.18
2023-02-20T12:59:59.428Z,7.40
2023-02-20T13:02:46.812Z,9.30
2023-02-20T13:05:22.412Z,8.73
2023-02-20T13:08:26.016Z,8.38
2023-02-20T13:11:26.476Z,8.02
2023-02-20T13:14:13.482Z,8.00
2023-02-20T13:17:26.091Z,7.50
2023-02-20T13:20:11.352Z,7.35
2023-02-20T13:22:38.186Z,8.15
2023-02-20T13:25:41.551Z,7.60
2023-02-20T13:28:21.536Z,7.72
2023-02-20T13:31:16.896Z,7.55
2023-02-20T13:34:07.348Z,7.97
2023-02-20T13:36:42.460Z,8.00
2023-02-20T13:39:27.310Z,8.45
2023-02-20T13:41:54.411Z,6.63
2023-02-20T13:44:36.079Z,7.65
2023-02-20T13:47:27.420Z,8.40
2023-02-20T13:50:01.641Z,8.57
2023-02-20T13:52:31.466Z,7.43
2023-02-20T13:55:10.534Z,7.65
2023-02-20T13:57:57.306Z,7.22
2023-02-20T14:00:52.813Z,7.90
2023-02-20T14:03:29.524Z,8.75
2023-02-20T14:06:07.691Z,9.13
2023-02-20T14:08:37.703Z,8.75
2023-02-20T14:11:07.063Z,8.63
2023-02-20T14:13:40.443Z,8.07
2023-02-20T14:16:35.151Z,8.32
2023-02-20T14:19:29.948Z,8.70
2023-02-20T14:21:56.905Z,9.13
2023-02-20T14:24:29.532Z,9.48
2023-02-20T14:26:57.038Z,8.80
2023-02-20T14:29:34.035Z,9.07
2023-02-20T14:32:03.826Z,8.68
2023-02-20T14:34:55.734Z,8.93
2023-02-20T14:37:50.249Z,8.73
2023-02-20T14:40:31.530Z,9.15
2023-02-20T14:43:05.777Z,9.90
2023-02-20T14:45:33.509Z,9.75
2023-02-20T14:48:01.480Z,9.40
2023-02-20T14:50:36.043Z,9.40
2023-02-20T14:53:22.781Z,9.15
2023-02-20T14:55:50.920Z,8.68
2023-02-20T14:58:24.988Z,8.73
2023-02-20T15:00:53.420Z,9.60
2023-02-20T15:03:31.444Z,9.65
2023-02-20T15:06:04.743Z,9.43
2023-02-20T15:08:37.758Z,9.95
2023-02-20T15:11:15.298Z,8.35
2023-02-20T15:13:46.460Z,12.80
2023-02-20T15:16:23.640Z,10.20
2023-02-20T15:18:51.460Z,9.30
2023-02-20T15:21:38.240Z,9.95
2023-02-20T15:24:33.336Z,11.77
2023-02-20T15:27:24.241Z,9.57
2023-02-20T15:30:17.421Z,11.38
2023-02-20T15:32:52.777Z,9.40
2023-02-20T15:35:26.307Z,8.65
2023-02-20T15:38:02.262Z,8.68
2023-02-20T15:40:33.065Z,9.00
2023-02-20T15:43:04.602Z,8.73
2023-02-20T15:45:40.566Z,9.43
2023-02-20T15:48:08.902Z,8.40
2023-02-20T15:50:35.918Z,8.20
2023-02-20T15:53:03.726Z,8.70
2023-02-20T15:55:38.352Z,8.43
2023-02-20T15:58:29.292Z,7.90
2023-02-20T16:00:57.877Z,7.85
2023-02-20T16:03:30.235Z,7.20
2023-02-20T16:05:59.519Z,9.03
2023-02-20T16:08:27.437Z,7.57
2023-02-20T16:10:56.286Z,8.20
2023-02-20T16:13:30.772Z,8.23
2023-02-20T16:15:58.079Z,7.95
2023-02-20T16:18:25.419Z,8.63
2023-02-20T16:20:55.638Z,7.65
2023-02-20T16:23:22.615Z,7.63
2023-02-20T16:25:50.934Z,7.18
2023-02-20T16:28:17.874Z,8.00
2023-02-20T16:30:46.035Z,8.10
2023-02-20T16:33:18.324Z,8.43
2023-02-20T16:35:48.125Z,8.57
2023-02-20T16:38:15.857Z,8.15
2023-02-20T16:40:42.908Z,8.38
2023-02-20T16:43:14.753Z,7.45
2023-02-20T16:45:43.286Z,7.07
2023-02-20T16:48:20.481Z,7.75
2023-02-20T16:50:53.559Z,8.02
2023-02-20T16:53:22.521Z,8.85
2023-02-20T16:55:51.786Z,9.23
2023-02-20T16:58:20.328Z,9.20
2023-02-20T17:00:57.092Z,8.23
2023-02-20T17:03:27.756Z,7.72
2023-02-20T17:05:59.461Z,8.48
2023-02-20T17:08:27.284Z,9.25
2023-02-20T17:10:54.176Z,8.00
2023-02-20T17:13:21.495Z,7.18
2023-02-20T17:15:48.586Z,8.02
2023-02-20T17:18:16.024Z,7.55
2023-02-20T17:20:43.008Z,7.68
2023-02-20T17:23:10.549Z,8.07
2023-02-20T17:25:37.552Z,8.10
2023-02-20T17:28:06.659Z,9.15
2023-02-20T17:30:36.718Z,7.88
2023-02-20T17:33:03.911Z,8.23
2023-02-20T17:35:33.679Z,8.38
2023-02-20T17:38:00.733Z,11.30
2023-02-20T17:40:27.669Z,8.63
2023-02-20T17:42:54.648Z,8.35
2023-02-20T17:45:21.571Z,8.23
2023-02-20T17:47:48.593Z,8.57
2023-02-20T17:50:18.893Z,8.38
2023-02-20T17:52:46.993Z,8.95
2023-02-20T17:55:21.314Z,7.63
2023-02-20T17:57:48.582Z,10.27
2023-02-20T18:00:18.551Z,11.43
2023-02-20T18:02:46.812Z,7.72
2023-02-20T18:05:24.004Z,9.48
2023-02-20T18:07:50.941Z,9.23
2023-02-20T18:10:21.411Z,8.80
2023-02-20T18:13:02.416Z,9.10
2023-02-20T18:15:36.453Z,8.80
2023-02-20T18:18:05.306Z,10.48
2023-02-20T18:20:32.581Z,10.60
2023-02-20T18:22:59.931Z,12.65
2023-02-20T18:25:39.664Z,8.90
2023-02-20T18:28:07.726Z,11.93
2023-02-20T18:30:35.477Z,9.32
2023-02-20T18:33:07.152Z,10.05
2023-02-20T18:35:44.674Z,10.32
2023-02-20T18:38:21.951Z,10.52
2023-02-20T18:40:51.044Z,9.60
2023-02-20T18:43:46.160Z,9.40
2023-02-20T18:46:47.634Z,10.15
2023-02-20T18:49:41.423Z,9.88
2023-02-20T18:52:29.208Z,11.15
2023-02-20T18:55:36.603Z,10.10
2023-02-20T18:58:16.749Z,9.90
2023-02-20T19:00:53.327Z,9.63
2023-02-20T19:03:24.293Z,10.82
2023-02-20T19:06:09.211Z,9.95
2023-02-20T19:09:12.251Z,9.52
2023-02-20T19:11:42.187Z,10.45
2023-02-20T19:14:29.391Z,11.40
2023-02-20T19:17:47.234Z,10.02
2023-02-20T19:20:43.837Z,9.75
2023-02-20T19:29:41.689Z,10.27
2023-02-20T19:32:10.657Z,11.27
2023-02-20T19:34:38.175Z,11.30
2023-02-20T19:37:18.173Z,11.18
2023-02-20T19:39:45.163Z,10.75
2023-02-20T19:42:12.442Z,13.30
2023-02-20T19:44:39.574Z,11.63
2023-02-20T19:47:06.551Z,11.48
2023-02-20T19:49:33.740Z,12.93
2023-02-20T19:52:01.882Z,11.35
2023-02-20T19:54:30.403Z,11.88
2023-02-20T19:57:01.292Z,11.50
2023-02-20T19:59:29.967Z,12.98
2023-02-20T20:01:59.420Z,11.88
2023-02-20T20:04:30.706Z,11.90
2023-02-20T20:06:59.829Z,10.85
2023-02-20T20:09:36.126Z,10.75
2023-02-20T20:12:27.102Z,12.25
2023-02-20T20:14:56.201Z,11.55
2023-02-20T20:17:23.509Z,11.00
2023-02-20T20:20:00.609Z,11.77
2023-02-20T20:22:31.548Z,13.13
2023-02-20T20:24:58.964Z,10.85
2023-02-20T20:27:26.172Z,11.82
2023-02-20T20:29:53.163Z,12.77
2023-02-20T20:32:21.620Z,12.65
2023-02-20T20:34:55.393Z,11.77
2023-02-20T20:37:25.343Z,11.68
2023-02-20T20:39:57.345Z,11.93
2023-02-20T20:42:27.631Z,11.80
2023-02-20T20:45:03.052Z,11.43
2023-02-20T20:47:56.456Z,12.50
2023-02-20T20:51:09.236Z,12.18
2023-02-20T20:54:13.959Z,13.20
2023-02-20T20:57:24.670Z,11.85
2023-02-20T21:04:26.106Z,11.90
2023-02-20T21:14:31.339Z,11.75
2023-02-20T21:17:40.470Z,12.88
2023-02-20T21:21:02.108Z,12.88
2023-02-20T21:28:26.312Z,13.48
2023-02-20T21:31:46.998Z,11.73
2023-02-20T21:35:04.684Z,13.38
2023-02-20T22:01:36.689Z,13.25
2023-02-20T22:04:07.448Z,13.60
2023-02-20T22:07:20.140Z,12.93
2023-02-20T22:10:12.537Z,13.45
2023-02-20T22:17:04.865Z,13.85
2023-02-20T22:24:00.453Z,14.25
2023-02-20T22:35:19.299Z,12.27
2023-02-20T22:42:18.454Z,14.05
2023-02-20T22:45:26.528Z,13.20
2023-02-20T22:51:50.756Z,14.15
2023-02-20T22:55:23.539Z,14.98
2023-02-20T22:58:21.300Z,14.98
2023-02-20T23:01:30.926Z,14.13
2023-02-20T23:04:47.632Z,14.77
2023-02-20T23:07:44.436Z,15.77
2023-02-20T23:14:13.647Z,14.80
2023-02-20T23:17:37.802Z,14.70
2023-02-20T23:27:32.586Z,15.32
2023-02-20T23:38:00.850Z,15.27
2023-02-20T23:41:41.003Z,13.98
2023-02-20T23:44:49.243Z,14.20
2023-02-20T23:52:14.816Z,13.50
